Hanjin Robertsbank — DSNW9 — position and weather

sailwx.info

Track history (hours):
 
Tides and Currents Weather Stations Pressure Air Temp Water Temp Dewpoint Dewpoint Depression Visibility Wind Speed Wind Dir Waves Ship Positions

Hanjin Robertsbank

Last reported at 2018-Jan-28 23:32 UTC. Time now 2018-Feb-20 19:25 UTC.
Position N 21°60' E 121°12'.
Warning: this ship's position is 22 days out of date.

Length 268 m; draft 8.8 m.

Type: Cargo ship. MMSI: 440386000.

Date/timePositionNaut miles runAvg speedWind from/ knotsBaromVisibWave heightAir tempDewpointWater temp
2018-Jan-28 23:32N 21°60' E 121°12'113.6
2018-Jan-28 23:27N 22°01' E 121°12'613.4
2018-Jan-28 22:58N 22°06' E 121°17'612.4
2018-Jan-28 22:29N 22°11' E 121°21'1512.0
2018-Jan-28 21:13N 22°22' E 121°31'411.4
2018-Jan-28 20:54N 22°25' E 121°33'511.6
2018-Jan-28 20:30N 22°29' E 121°37'712.3
2018-Jan-28 19:58N 22°34' E 121°41'612.5
2018-Jan-28 19:28N 22°39' E 121°45'612.7
2018-Jan-28 19:00N 22°43' E 121°50'712.6
2018-Jan-28 18:29N 22°48' E 121°54'712.6
2018-Jan-28 17:58N 22°53' E 121°58'5213.5
2018-Jan-28 14:06N 23°33' E 122°35'314.2
2018-Jan-28 13:52N 23°36' E 122°37'514.0
2018-Jan-28 13:30N 23°40' E 122°41'713.6
2018-Jan-28 13:00N 23°45' E 122°45'713.4
2018-Jan-28 12:29N 23°50' E 122°50'612.8
2018-Jan-28 12:00N 23°55' E 122°54'612.3
2018-Jan-28 11:30N 23°60' E 122°58'612.4
2018-Jan-28 11:00N 24°05' E 123°03'611.9
2018-Jan-28 10:30N 24°09' E 123°07'611.9
2018-Jan-28 10:00N 24°14' E 123°11'612.1
2018-Jan-28 09:29N 24°19' E 123°15'611.8
2018-Jan-28 09:00N 24°24' E 123°18'611.8
2018-Jan-28 08:30N 24°29' E 123°21'612.0
2018-Jan-28 08:00N 24°35' E 123°23'612.3
2018-Jan-28 07:29N 24°41' E 123°26'612.5
2018-Jan-28 07:00N 24°46' E 123°29'612.6
2018-Jan-28 06:30N 24°52' E 123°31'  
Track history (hours):
 
Tides and Currents Weather Stations Pressure Air Temp Water Temp Dewpoint Dewpoint Depression Visibility Wind Speed Wind Dir Waves Ship Positions

Hanjin Robertsbank

Last reported at 2018-Jan-28 23:32 UTC. Time now 2018-Feb-20 19:25 UTC.
Position N 21°60' E 121°12'.
Warning: this ship's position is 22 days out of date.

Length 268 m; draft 8.8 m.

Type: Cargo ship. MMSI: 440386000.

Date/timePositionNaut miles runAvg speedWind from/ knotsBaromVisibWave heightAir tempDewpointWater temp
2018-Jan-28 23:32N 21°60' E 121°12'113.6
2018-Jan-28 23:27N 22°01' E 121°12'613.4
2018-Jan-28 22:58N 22°06' E 121°17'612.4
2018-Jan-28 22:29N 22°11' E 121°21'1512.0
2018-Jan-28 21:13N 22°22' E 121°31'411.4
2018-Jan-28 20:54N 22°25' E 121°33'511.6
2018-Jan-28 20:30N 22°29' E 121°37'712.3
2018-Jan-28 19:58N 22°34' E 121°41'612.5
2018-Jan-28 19:28N 22°39' E 121°45'612.7
2018-Jan-28 19:00N 22°43' E 121°50'712.6
2018-Jan-28 18:29N 22°48' E 121°54'712.6
2018-Jan-28 17:58N 22°53' E 121°58'5213.5
2018-Jan-28 14:06N 23°33' E 122°35'314.2
2018-Jan-28 13:52N 23°36' E 122°37'514.0
2018-Jan-28 13:30N 23°40' E 122°41'713.6
2018-Jan-28 13:00N 23°45' E 122°45'713.4
2018-Jan-28 12:29N 23°50' E 122°50'612.8
2018-Jan-28 12:00N 23°55' E 122°54'612.3
2018-Jan-28 11:30N 23°60' E 122°58'612.4
2018-Jan-28 11:00N 24°05' E 123°03'611.9
2018-Jan-28 10:30N 24°09' E 123°07'611.9
2018-Jan-28 10:00N 24°14' E 123°11'612.1
2018-Jan-28 09:29N 24°19' E 123°15'611.8
2018-Jan-28 09:00N 24°24' E 123°18'611.8
2018-Jan-28 08:30N 24°29' E 123°21'612.0
2018-Jan-28 08:00N 24°35' E 123°23'612.3
2018-Jan-28 07:29N 24°41' E 123°26'612.5
2018-Jan-28 07:00N 24°46' E 123°29'612.6
2018-Jan-28 06:30N 24°52' E 123°31'  

Dump ship's entire track history